createdAt,value
2024-02-24T00:00:15.560Z,3.20
2024-02-24T00:02:43.926Z,3.87
2024-02-24T00:05:12.390Z,3.90
2024-02-24T00:07:40.399Z,3.23
2024-02-24T00:10:09.235Z,3.87
2024-02-24T00:12:37.184Z,3.50
2024-02-24T00:15:05.670Z,3.90
2024-02-24T00:17:33.879Z,3.97
2024-02-24T00:20:01.838Z,3.70
2024-02-24T00:22:29.777Z,4.30
2024-02-24T00:24:57.749Z,4.27
2024-02-24T00:27:25.667Z,4.13
2024-02-24T00:29:53.564Z,3.90
2024-02-24T00:32:21.521Z,4.20
2024-02-24T00:34:49.389Z,5.87
2024-02-24T00:37:17.320Z,4.20
2024-02-24T00:39:46.384Z,3.90
2024-02-24T00:42:14.324Z,4.47
2024-02-24T00:44:42.259Z,5.03
2024-02-24T00:47:10.256Z,4.87
2024-02-24T00:49:38.182Z,4.80
2024-02-24T00:52:06.345Z,4.23
2024-02-24T00:54:34.263Z,4.67
2024-02-24T00:57:02.187Z,4.93
2024-02-24T00:59:30.206Z,4.03
2024-02-24T01:01:58.188Z,4.63
2024-02-24T01:04:26.469Z,4.53
2024-02-24T01:06:54.836Z,4.90
2024-02-24T01:09:22.912Z,4.50
2024-02-24T01:11:50.954Z,4.87
2024-02-24T01:14:19.114Z,4.00
2024-02-24T01:16:47.127Z,4.17
2024-02-24T01:19:52.562Z,3.60
2024-02-24T01:22:20.522Z,4.10
2024-02-24T01:24:48.430Z,4.57
2024-02-24T01:27:16.368Z,4.57
2024-02-24T01:29:44.452Z,5.07
2024-02-24T01:32:12.456Z,5.27
2024-02-24T01:34:40.439Z,5.37
2024-02-24T01:37:08.396Z,4.60
2024-02-24T01:39:37.215Z,5.70
2024-02-24T01:42:05.267Z,5.20
2024-02-24T01:44:33.391Z,4.37
2024-02-24T01:47:01.286Z,5.97
2024-02-24T01:49:29.914Z,4.67
2024-02-24T01:51:58.095Z,4.70
2024-02-24T01:54:26.337Z,5.53
2024-02-24T01:56:54.880Z,4.67
2024-02-24T01:59:23.467Z,5.57
2024-02-24T02:01:51.574Z,5.03
2024-02-24T02:04:19.514Z,5.27
2024-02-24T02:06:47.874Z,5.27
2024-02-24T02:09:15.853Z,5.77
2024-02-24T02:11:55.970Z,7.17
2024-02-24T02:14:28.631Z,6.53
2024-02-24T02:16:56.688Z,6.97
2024-02-24T02:19:24.869Z,5.83
2024-02-24T02:21:53.272Z,6.43
2024-02-24T02:24:21.154Z,6.73
2024-02-24T02:26:49.068Z,6.00
2024-02-24T02:29:17.017Z,4.87
2024-02-24T02:31:44.989Z,4.23
2024-02-24T02:34:13.059Z,3.60
2024-02-24T02:36:41.074Z,4.23
2024-02-24T02:39:09.020Z,3.70
2024-02-24T02:41:36.992Z,2.80
2024-02-24T02:44:05.051Z,2.70
2024-02-24T02:46:32.940Z,2.37
2024-02-24T02:49:00.933Z,1.43
2024-02-24T02:51:28.871Z,0.87
2024-02-24T02:53:56.730Z,1.43
2024-02-24T02:56:24.714Z,0.87
2024-02-24T02:58:52.609Z,0.60
2024-02-24T03:01:20.646Z,0.70
2024-02-24T03:03:48.624Z,0.80
2024-02-24T03:06:16.718Z,0.70
2024-02-24T03:08:44.728Z,1.43
2024-02-24T03:11:17.465Z,0.63
2024-02-24T03:13:48.514Z,0.70
2024-02-24T03:16:21.602Z,1.00
2024-02-24T03:18:50.360Z,0.50
2024-02-24T03:21:35.269Z,0.60
2024-02-24T03:24:03.865Z,0.60
2024-02-24T03:26:31.841Z,0.90
2024-02-24T03:28:59.749Z,0.50
2024-02-24T03:31:27.862Z,0.40
2024-02-24T03:33:55.915Z,0.50
2024-02-24T03:36:23.950Z,0.60
2024-02-24T03:38:51.957Z,0.83
2024-02-24T03:41:19.891Z,0.67
2024-02-24T03:43:48.557Z,1.07
2024-02-24T03:46:17.433Z,0.97
2024-02-24T03:48:48.020Z,0.77
2024-02-24T03:51:16.102Z,0.70
2024-02-24T03:53:44.394Z,0.60
2024-02-24T03:56:12.475Z,0.70
2024-02-24T03:58:43.647Z,0.90
2024-02-24T04:01:11.629Z,0.93
2024-02-24T04:03:39.561Z,1.17
2024-02-24T04:06:08.106Z,1.00
2024-02-24T04:08:36.489Z,0.90
2024-02-24T04:11:04.782Z,0.90
2024-02-24T04:13:32.770Z,1.03
2024-02-24T04:16:00.899Z,0.87
2024-02-24T04:18:28.952Z,0.50
2024-02-24T04:20:57.099Z,0.60
2024-02-24T04:23:25.021Z,0.80
2024-02-24T04:25:53.370Z,0.60
2024-02-24T04:28:22.932Z,1.13
2024-02-24T04:30:51.086Z,0.93
2024-02-24T04:33:19.239Z,1.00
2024-02-24T04:35:47.412Z,1.53
2024-02-24T04:38:15.390Z,2.60
2024-02-24T04:40:43.631Z,1.83
2024-02-24T04:43:11.640Z,2.17
2024-02-24T04:45:39.507Z,1.40
2024-02-24T04:48:08.061Z,1.30
2024-02-24T04:50:36.063Z,1.43
2024-02-24T04:53:04.172Z,1.80
2024-02-24T04:55:32.163Z,1.37
2024-02-24T04:58:00.108Z,2.10
2024-02-24T05:00:28.173Z,1.80
2024-02-24T05:02:56.072Z,1.60
2024-02-24T05:05:24.216Z,2.07
2024-02-24T05:07:52.544Z,1.70
2024-02-24T05:10:20.525Z,1.97
2024-02-24T05:12:51.043Z,3.43
2024-02-24T05:15:19.364Z,2.43
2024-02-24T05:17:47.558Z,1.67
2024-02-24T05:20:15.875Z,1.47
2024-02-24T05:22:43.804Z,2.10
2024-02-24T05:25:12.067Z,1.60
2024-02-24T05:27:40.173Z,2.20
2024-02-24T05:30:08.474Z,1.97
2024-02-24T05:32:36.504Z,2.30
2024-02-24T05:35:04.633Z,3.63
2024-02-24T05:37:33.793Z,2.10
2024-02-24T05:40:01.796Z,3.40
2024-02-24T05:42:30.108Z,3.40
2024-02-24T05:44:58.795Z,2.40
2024-02-24T05:47:27.146Z,2.27
2024-02-24T05:49:55.191Z,3.03
2024-02-24T05:52:23.147Z,3.33
2024-02-24T05:54:51.036Z,2.83
2024-02-24T05:57:18.981Z,3.30
2024-02-24T05:59:47.025Z,3.20
2024-02-24T06:02:15.066Z,4.63
2024-02-24T06:04:43.206Z,4.87
2024-02-24T06:07:11.080Z,4.20
2024-02-24T06:09:39.073Z,4.10
2024-02-24T06:12:08.223Z,4.70
2024-02-24T06:14:36.496Z,4.63
2024-02-24T06:17:04.798Z,4.87
2024-02-24T06:19:32.863Z,3.67
2024-02-24T06:22:01.942Z,3.10
2024-02-24T06:24:29.924Z,3.37
2024-02-24T06:26:57.885Z,2.77
2024-02-24T06:29:26.272Z,4.77
2024-02-24T06:31:54.179Z,4.20
2024-02-24T06:34:23.160Z,3.07
2024-02-24T06:36:51.188Z,2.53
2024-02-24T06:39:19.036Z,3.53
2024-02-24T06:41:46.918Z,3.80
2024-02-24T06:44:14.902Z,4.03
2024-02-24T06:46:42.850Z,3.60
2024-02-24T06:49:10.822Z,3.43
2024-02-24T06:51:39.002Z,3.33
2024-02-24T06:54:06.950Z,3.47
2024-02-24T06:56:34.835Z,3.63
2024-02-24T06:59:07.245Z,4.03
2024-02-24T07:01:35.247Z,2.50
2024-02-24T07:04:03.542Z,3.37
2024-02-24T07:06:31.456Z,3.10
2024-02-24T07:08:59.524Z,3.37
2024-02-24T07:11:27.541Z,2.67
2024-02-24T07:13:55.456Z,3.70
2024-02-24T07:16:23.385Z,3.07
2024-02-24T07:18:51.399Z,3.63
2024-02-24T07:21:19.612Z,3.47
2024-02-24T07:23:49.018Z,2.90
2024-02-24T07:26:17.005Z,3.63
2024-02-24T07:28:44.899Z,3.23
2024-02-24T07:31:12.817Z,2.50
2024-02-24T07:33:40.819Z,4.13
2024-02-24T07:36:08.932Z,5.40
2024-02-24T07:38:40.941Z,4.27
2024-02-24T07:41:08.903Z,4.73
2024-02-24T07:43:36.862Z,3.20
2024-02-24T07:46:04.973Z,3.90
2024-02-24T07:48:32.990Z,2.93
2024-02-24T07:51:00.902Z,3.33
2024-02-24T07:53:29.105Z,3.00
2024-02-24T07:55:57.038Z,4.23
2024-02-24T07:58:24.990Z,5.83
2024-02-24T08:00:54.228Z,4.80
2024-02-24T08:03:22.382Z,4.87
2024-02-24T08:05:50.354Z,3.77
2024-02-24T08:08:18.445Z,4.93
2024-02-24T08:10:46.388Z,3.30
2024-02-24T08:13:14.457Z,4.27
2024-02-24T08:15:42.467Z,4.57
2024-02-24T08:18:10.759Z,4.00
2024-02-24T08:20:38.768Z,4.40
2024-02-24T08:23:06.806Z,3.03
2024-02-24T08:25:34.681Z,2.90
2024-02-24T08:28:02.725Z,3.80
2024-02-24T08:30:30.622Z,2.53
2024-02-24T08:32:58.581Z,3.33
2024-02-24T08:35:26.642Z,3.40
2024-02-24T08:37:54.630Z,4.07
2024-02-24T08:40:22.626Z,2.60
2024-02-24T08:42:50.767Z,2.90
2024-02-24T08:45:18.722Z,2.50
2024-02-24T08:47:46.810Z,3.43
2024-02-24T08:50:16.082Z,2.97
2024-02-24T08:52:50.176Z,2.70
2024-02-24T08:55:18.650Z,3.13
2024-02-24T08:57:46.948Z,2.80
2024-02-24T09:00:16.140Z,2.60
2024-02-24T09:02:44.109Z,4.07
2024-02-24T09:05:12.148Z,3.40
2024-02-24T09:07:40.175Z,2.53
2024-02-24T09:10:09.335Z,2.17
2024-02-24T09:12:37.516Z,2.70
2024-02-24T09:15:06.173Z,3.27
2024-02-24T09:17:34.335Z,2.97
2024-02-24T09:20:02.620Z,3.60
2024-02-24T09:22:30.557Z,3.23
2024-02-24T09:24:58.488Z,3.90
2024-02-24T09:27:26.397Z,2.13
2024-02-24T09:29:54.388Z,2.77
2024-02-24T09:32:22.507Z,3.17
2024-02-24T09:34:51.037Z,2.43
2024-02-24T09:37:18.975Z,2.23
2024-02-24T09:39:46.864Z,1.97
2024-02-24T09:42:14.884Z,2.10
2024-02-24T09:44:42.955Z,2.80
2024-02-24T09:47:11.770Z,3.13
2024-02-24T09:49:40.571Z,2.10
2024-02-24T09:52:08.709Z,2.07
2024-02-24T09:54:37.188Z,2.67
2024-02-24T09:57:05.677Z,2.20
2024-02-24T09:59:35.678Z,1.90
2024-02-24T10:02:03.788Z,1.83
2024-02-24T10:04:31.847Z,2.13
2024-02-24T10:06:59.846Z,1.83
2024-02-24T10:09:27.774Z,2.00
2024-02-24T10:11:55.709Z,1.87
2024-02-24T10:14:23.706Z,2.03
2024-02-24T10:16:53.679Z,1.30
2024-02-24T10:19:23.813Z,2.93
2024-02-24T10:21:52.650Z,1.90
2024-02-24T10:24:21.413Z,2.33
2024-02-24T10:26:55.607Z,1.83
2024-02-24T10:29:30.062Z,1.80
2024-02-24T10:32:01.621Z,2.33
2024-02-24T10:34:30.138Z,1.63
2024-02-24T10:37:00.192Z,1.43
2024-02-24T10:39:29.803Z,1.27
2024-02-24T10:41:58.532Z,1.33
2024-02-24T10:44:26.651Z,1.57
2024-02-24T10:46:54.666Z,2.03
2024-02-24T10:49:22.911Z,1.00
2024-02-24T10:51:51.346Z,1.43
2024-02-24T10:54:27.160Z,1.90
2024-02-24T10:57:02.933Z,1.77
2024-02-24T10:59:31.976Z,1.80
2024-02-24T11:02:07.792Z,0.83
2024-02-24T11:04:41.885Z,1.87
2024-02-24T11:07:19.562Z,1.37
2024-02-24T11:09:54.628Z,1.20
2024-02-24T11:12:26.117Z,1.87
2024-02-24T11:14:56.758Z,1.60
2024-02-24T11:17:47.263Z,1.70
2024-02-24T11:20:40.856Z,1.10
2024-02-24T11:23:34.410Z,1.13
2024-02-24T11:26:11.928Z,2.43
2024-02-24T11:29:00.671Z,1.97
2024-02-24T11:31:30.798Z,2.70
2024-02-24T11:34:07.395Z,1.60
2024-02-24T11:36:37.373Z,1.40
2024-02-24T11:39:08.757Z,1.33
2024-02-24T11:41:42.110Z,1.97
2024-02-24T11:44:10.604Z,1.13
2024-02-24T11:46:39.078Z,1.57
2024-02-24T11:49:07.211Z,3.17
2024-02-24T11:51:35.180Z,3.37
2024-02-24T11:54:05.157Z,5.37
2024-02-24T11:56:33.962Z,2.23
2024-02-24T11:59:02.790Z,1.13
2024-02-24T12:01:31.078Z,2.40
2024-02-24T12:04:00.747Z,1.20
2024-02-24T12:06:30.033Z,1.83
2024-02-24T12:08:58.570Z,1.83
2024-02-24T12:11:27.608Z,2.07
2024-02-24T12:13:56.164Z,1.20
2024-02-24T12:16:25.583Z,1.00
2024-02-24T12:18:53.921Z,2.33
2024-02-24T12:21:21.970Z,1.40
2024-02-24T12:23:49.947Z,2.47
2024-02-24T12:26:19.249Z,1.83
2024-02-24T12:28:48.656Z,2.77
2024-02-24T12:31:16.831Z,2.57
2024-02-24T12:33:46.542Z,2.73
2024-02-24T12:36:17.009Z,2.07
2024-02-24T12:38:46.539Z,3.93
2024-02-24T12:41:15.800Z,1.43
2024-02-24T12:43:43.879Z,2.20
2024-02-24T12:46:11.969Z,2.40
2024-02-24T12:48:42.714Z,2.83
2024-02-24T12:51:12.665Z,4.33
2024-02-24T12:53:42.933Z,1.77
2024-02-24T12:56:11.012Z,2.60
2024-02-24T12:58:40.289Z,1.60
2024-02-24T13:01:09.810Z,2.33
2024-02-24T13:03:37.931Z,2.60
2024-02-24T13:06:06.325Z,2.20
2024-02-24T13:08:34.484Z,1.57
2024-02-24T13:11:02.847Z,2.63
2024-02-24T13:13:30.800Z,4.70
2024-02-24T13:15:58.726Z,3.63
2024-02-24T13:18:28.876Z,3.90
2024-02-24T13:20:56.959Z,2.70
2024-02-24T13:23:24.966Z,2.10
2024-02-24T13:25:52.836Z,1.63
2024-02-24T13:28:20.727Z,3.27
2024-02-24T13:30:48.617Z,1.70
2024-02-24T13:33:16.731Z,2.60
2024-02-24T13:35:44.714Z,3.33
2024-02-24T13:38:12.806Z,2.90
2024-02-24T13:40:40.864Z,3.33
2024-02-24T13:43:08.805Z,2.83
2024-02-24T13:45:36.740Z,2.97
2024-02-24T13:48:05.074Z,3.07
2024-02-24T13:50:33.044Z,3.67
2024-02-24T13:53:00.951Z,13.27
2024-02-24T13:55:28.847Z,10.57
2024-02-24T13:57:56.846Z,7.70
2024-02-24T14:00:24.792Z,1.80
2024-02-24T14:02:52.718Z,1.70
2024-02-24T14:05:20.700Z,2.03
2024-02-24T14:07:48.627Z,3.20
2024-02-24T14:10:16.609Z,1.83
2024-02-24T14:12:44.598Z,2.83
2024-02-24T14:15:12.567Z,2.47
2024-02-24T14:17:40.694Z,2.47
2024-02-24T14:20:19.710Z,2.73
2024-02-24T14:22:53.783Z,2.23
2024-02-24T14:25:21.653Z,4.63
2024-02-24T14:27:49.606Z,2.33
2024-02-24T14:30:17.666Z,2.63
2024-02-24T14:32:46.063Z,2.33
2024-02-24T14:35:15.367Z,3.47
2024-02-24T14:37:46.707Z,4.30
2024-02-24T14:40:14.794Z,2.97
2024-02-24T14:42:42.859Z,3.60
2024-02-24T14:45:11.000Z,2.03
2024-02-24T14:47:39.326Z,3.63
2024-02-24T14:50:07.808Z,2.93
2024-02-24T14:52:35.733Z,3.43
2024-02-24T14:55:04.594Z,2.50
2024-02-24T14:57:32.536Z,1.70
2024-02-24T15:00:00.746Z,1.97
2024-02-24T15:02:40.372Z,3.27
2024-02-24T15:05:17.077Z,3.93
2024-02-24T15:07:45.475Z,2.00
2024-02-24T15:10:13.421Z,1.53
2024-02-24T15:12:41.284Z,2.47
2024-02-24T15:15:10.895Z,3.57
2024-02-24T15:17:39.096Z,1.73
2024-02-24T15:20:07.556Z,2.57
2024-02-24T15:22:35.448Z,3.03
2024-02-24T15:25:03.684Z,3.53
2024-02-24T15:27:32.138Z,2.10
2024-02-24T15:30:00.111Z,1.63
2024-02-24T15:32:29.167Z,2.27
2024-02-24T15:34:57.279Z,1.37
2024-02-24T15:37:25.209Z,2.67
2024-02-24T15:39:53.100Z,2.40
2024-02-24T15:42:21.000Z,2.63
2024-02-24T15:44:48.980Z,2.07
2024-02-24T15:47:16.923Z,4.77
2024-02-24T15:49:44.880Z,5.10
2024-02-24T15:52:12.808Z,4.03
2024-02-24T15:54:40.749Z,4.93
2024-02-24T15:57:08.704Z,5.17
2024-02-24T15:59:36.720Z,4.73
2024-02-24T16:02:04.836Z,5.30
2024-02-24T16:04:33.903Z,4.83
2024-02-24T16:07:02.040Z,4.50
2024-02-24T16:09:30.998Z,4.93
2024-02-24T16:11:58.898Z,4.47
2024-02-24T16:14:26.927Z,3.63
2024-02-24T16:16:54.813Z,5.37
2024-02-24T16:19:22.869Z,2.50
2024-02-24T16:21:50.871Z,3.97
2024-02-24T16:24:18.841Z,5.07
2024-02-24T16:26:49.328Z,6.40
2024-02-24T16:29:17.371Z,9.57
2024-02-24T16:31:45.325Z,8.60
2024-02-24T16:34:13.476Z,15.07
2024-02-24T16:36:41.555Z,18.97
2024-02-24T16:39:12.915Z,9.70
2024-02-24T16:41:41.453Z,12.33
2024-02-24T16:44:10.569Z,20.87
2024-02-24T16:46:44.287Z,22.30
2024-02-24T16:49:12.325Z,20.73
2024-02-24T16:51:40.573Z,17.93
2024-02-24T16:54:09.423Z,20.17
2024-02-24T16:56:37.401Z,19.63
2024-02-24T16:59:05.341Z,19.63
2024-02-24T17:01:33.225Z,18.97
2024-02-24T17:04:02.190Z,22.63
2024-02-24T17:06:30.215Z,32.43
2024-02-24T17:08:58.166Z,28.57
2024-02-24T17:11:28.504Z,22.50
2024-02-24T17:13:57.754Z,14.87
2024-02-24T17:16:25.645Z,15.13
2024-02-24T17:18:53.855Z,14.27
2024-02-24T17:21:21.993Z,18.40
2024-02-24T17:23:50.093Z,19.57
2024-02-24T17:26:18.543Z,20.27
2024-02-24T17:28:49.140Z,22.13
2024-02-24T17:31:17.233Z,20.83
2024-02-24T17:33:47.169Z,20.47
2024-02-24T17:36:15.878Z,33.27
2024-02-24T17:38:43.990Z,20.77
2024-02-24T17:41:12.166Z,17.90
2024-02-24T17:43:40.070Z,15.33
2024-02-24T17:46:08.024Z,15.80
2024-02-24T17:48:36.980Z,15.17
2024-02-24T17:51:05.304Z,24.23
2024-02-24T17:53:34.531Z,37.50
2024-02-24T17:56:02.506Z,51.57
2024-02-24T17:58:40.047Z,32.37
2024-02-24T18:01:12.559Z,34.67
2024-02-24T18:03:40.573Z,31.40
2024-02-24T18:06:08.569Z,34.87
2024-02-24T18:08:36.649Z,107.10
2024-02-24T18:11:04.854Z,190.83
2024-02-24T18:13:32.801Z,119.37
2024-02-24T18:16:00.812Z,110.73
2024-02-24T18:18:28.838Z,45.67
2024-02-24T18:20:56.987Z,39.53
2024-02-24T18:23:25.003Z,21.70
2024-02-24T18:25:54.793Z,20.97
2024-02-24T18:28:22.632Z,33.53
2024-02-24T18:30:50.564Z,19.97
2024-02-24T18:33:18.583Z,14.37
2024-02-24T18:35:46.668Z,12.97
2024-02-24T18:38:15.786Z,12.27
2024-02-24T18:40:43.806Z,13.57
2024-02-24T18:43:11.862Z,13.07
2024-02-24T18:45:43.271Z,13.00
2024-02-24T18:48:11.263Z,12.67
2024-02-24T18:50:39.528Z,11.67
2024-02-24T18:53:07.621Z,13.10
2024-02-24T18:55:36.290Z,13.10
2024-02-24T18:58:04.691Z,12.90
2024-02-24T19:00:32.694Z,14.23
2024-02-24T19:03:00.697Z,11.97
2024-02-24T19:05:31.925Z,13.70
2024-02-24T19:07:59.955Z,13.37
2024-02-24T19:10:27.933Z,14.13
2024-02-24T19:12:56.031Z,13.53
2024-02-24T19:15:24.231Z,16.47
2024-02-24T19:17:52.443Z,15.53
2024-02-24T19:20:20.663Z,15.67
2024-02-24T19:22:48.660Z,17.20
2024-02-24T19:25:17.042Z,15.77
2024-02-24T19:27:46.846Z,20.17
2024-02-24T19:30:15.029Z,18.17
2024-02-24T19:32:46.551Z,18.83
2024-02-24T19:35:15.189Z,16.10
2024-02-24T19:37:43.223Z,17.07
2024-02-24T19:40:11.822Z,16.03
2024-02-24T19:42:39.807Z,17.63
2024-02-24T19:45:08.325Z,21.03
2024-02-24T19:47:36.521Z,19.57
2024-02-24T19:50:05.005Z,22.27
2024-02-24T19:52:33.048Z,20.73
2024-02-24T19:55:01.131Z,16.23
2024-02-24T19:57:29.074Z,17.27
2024-02-24T19:59:58.570Z,17.53
2024-02-24T20:02:26.980Z,20.93
2024-02-24T20:04:54.944Z,29.20
2024-02-24T20:07:22.969Z,33.97
2024-02-24T20:09:50.992Z,35.07
2024-02-24T20:12:19.154Z,41.77
2024-02-24T20:14:50.848Z,37.43
2024-02-24T20:17:19.326Z,37.50
2024-02-24T20:19:47.500Z,41.40
2024-02-24T20:22:15.812Z,40.93
2024-02-24T20:24:44.063Z,37.70
2024-02-24T20:27:12.115Z,38.13
2024-02-24T20:29:40.052Z,38.57
2024-02-24T20:32:08.207Z,46.27
2024-02-24T20:34:36.253Z,40.97
2024-02-24T20:37:04.327Z,40.90
2024-02-24T20:39:32.492Z,43.43
2024-02-24T20:42:00.525Z,43.30
2024-02-24T20:44:28.580Z,39.93
2024-02-24T20:46:56.606Z,39.87
2024-02-24T20:49:26.051Z,33.70
2024-02-24T20:51:59.799Z,34.00
2024-02-24T20:54:30.136Z,41.10
2024-02-24T20:56:58.633Z,41.17
2024-02-24T20:59:26.844Z,35.23
2024-02-24T21:01:55.063Z,36.47
2024-02-24T21:04:23.030Z,33.00
2024-02-24T21:06:51.299Z,31.00
2024-02-24T21:09:19.369Z,34.87
2024-02-24T21:11:47.420Z,183.77
2024-02-24T21:14:15.373Z,50.33
2024-02-24T21:16:43.284Z,40.83
2024-02-24T21:19:11.393Z,54.13
2024-02-24T21:21:41.055Z,48.47
2024-02-24T21:24:09.280Z,74.53
2024-02-24T21:26:37.915Z,58.77
2024-02-24T21:29:05.871Z,42.27
2024-02-24T21:31:34.107Z,33.63
2024-02-24T21:34:02.425Z,43.17
2024-02-24T21:36:33.814Z,34.20
2024-02-24T21:39:02.384Z,38.80
2024-02-24T21:41:32.819Z,45.47
2024-02-24T21:44:00.777Z,46.87
2024-02-24T21:46:28.663Z,36.50
2024-02-24T21:48:56.959Z,33.47
2024-02-24T21:51:25.228Z,35.23
2024-02-24T21:53:53.482Z,41.40
2024-02-24T21:56:24.610Z,43.40
2024-02-24T21:58:53.143Z,41.60
2024-02-24T22:01:22.971Z,44.43
2024-02-24T22:03:50.982Z,49.47
2024-02-24T22:06:19.124Z,45.13
2024-02-24T22:08:47.110Z,45.13
2024-02-24T22:11:15.176Z,40.83
2024-02-24T22:13:45.579Z,43.87
2024-02-24T22:16:14.681Z,44.03
2024-02-24T22:18:45.007Z,42.10
2024-02-24T22:21:13.133Z,38.30
2024-02-24T22:23:41.256Z,39.17
2024-02-24T22:26:09.207Z,33.57
2024-02-24T22:28:37.162Z,34.23
2024-02-24T22:31:05.236Z,46.97
2024-02-24T22:33:33.333Z,48.83
2024-02-24T22:36:01.414Z,28.33
2024-02-24T22:38:29.574Z,26.70
2024-02-24T22:40:57.854Z,25.80
2024-02-24T22:43:27.861Z,29.43
2024-02-24T22:45:55.841Z,31.73
2024-02-24T22:48:23.927Z,32.67
2024-02-24T22:50:51.937Z,29.50
2024-02-24T22:53:19.865Z,28.73
2024-02-24T22:55:47.842Z,25.70
2024-02-24T22:58:15.770Z,28.27
2024-02-24T23:00:45.875Z,27.90
2024-02-24T23:03:13.915Z,27.27
2024-02-24T23:05:41.909Z,27.30
2024-02-24T23:08:10.185Z,28.40
2024-02-24T23:10:38.119Z,28.70
2024-02-24T23:13:06.089Z,40.40
2024-02-24T23:15:33.972Z,78.67
2024-02-24T23:18:02.105Z,89.07
2024-02-24T23:20:30.206Z,43.30
2024-02-24T23:22:58.141Z,33.53
2024-02-24T23:25:26.396Z,29.77
2024-02-24T23:27:54.296Z,32.00
2024-02-24T23:30:22.218Z,24.20
2024-02-24T23:32:50.182Z,24.57
2024-02-24T23:35:18.261Z,38.67
2024-02-24T23:37:46.344Z,36.77
2024-02-24T23:40:14.509Z,29.20
2024-02-24T23:42:42.598Z,30.13
2024-02-24T23:45:10.948Z,28.37
2024-02-24T23:47:39.019Z,29.10
2024-02-24T23:50:07.211Z,25.00
2024-02-24T23:52:35.157Z,26.63
2024-02-24T23:55:04.026Z,25.20
2024-02-24T23:57:35.037Z,38.50
